Strona główna
METAR-TAF:

METAR-TAF

Lotnisko :

Port lotniczy Rosario

Rosario, Argentyna

Szerokość geograficzna: 32-55S, Długość geograficzna: 060-47W, wysokość: 25 m

Aktualna obserwacja pogody

Raport powstał 1 godzina i 11 minut temu, godzina 09:00 UTC
Wiatr 5 kt od północ
Temperatura 19°C
Wilgotność 78%
Ciśnienie 1010 hPa
Widzialność 10 km lub więcej
Brak chmur poniżej 1500 m i brak chmur cumulonimbus

METAR: SAAR 210900Z 36005KT CAVOK 19/15 Q1010

czas: 07:11 (10:11 UTC)

Prognoza

Raport powstał 5 godziny i 11 minut temu, godzina 05:00 UTC
Prognoza ważna od 21 godzina 06 UTC do 22 godzina 06 UTC
Wiatr 10 kt od północ
Widzialność 10 km lub więcej
Brak chmur poniżej 1500 m i brak chmur cumulonimbus

TAF: SAAR 210500Z 2106/2206 36010KT CAVOK TX35/2119Z TN17/2109Z

Obserwacja i prognoza pogody dla ponad 4000 lotnisk (raport METAR i TAF).

Dostępne stacje oznaczono żółtymi i czerwonymi punktami na mapie.

Najedź kursorem aby zobaczyć nazwę stacji.

Kliknij aby zobaczyć obserwacje i prognozy pogody.

Aby zmienić mapę: kliknij na zielony przycisk z czarnym krzyżykiem, aby powiększyć; na zielony przycisk z myślnikiem, aby pomniejszyć; na zielone strzałki, aby przejść do map sąsiednich.


METAR-TAF: